Historyczne dane pomiarowe

Dodano dane terminowe – wersja testowa.

Dane z okresu 1951-2019

Wersja bazy: 1.34 [2019-03-16, lista zmian], aktualizacja planowana na 2019-04-15

Dane meteo z obszaru Polski uzyskane na podstawie danych udostępnionych przez Instytut Meteorologii i Gospodarki Wodnej – Państwowy Instytut Badawczy.

 

Wybierz Datę:    

       

TemperaturaWilgotnośćWiatrCiśnienieOpadyŚniegCzas trwania zjawisk
 Stacja t tx tn tng RH VA  wxwx mslp ppp RRR   cm mm wxwxwxwxwxwxwx
2019-07-25 21.0 28.4 11.7--- 2.3 1.3---- 0.0------------
2019-07-24 19.9 23.5 17.0--- 7.0 1.3---- 0.2------------
2019-07-23 17.5 22.0 14.3--- 7.7 1.3---- 1.9------------
2019-07-22 20.7 27.1 14.3--- 7.3 2.3---- 0.8------------
2019-07-21 21.5 30.0 15.9--- 7.0 1.7---- 44.7------------
2019-07-20 21.2 29.1 13.1--- 6.3 2.3---- 0.0------------
2019-07-19 18.7 28.7 8.1--- 6.0 1.7---- 0.0------------
2019-07-18 16.9 24.2 6.7--- 3.7 1.0---- 0.0------------
2019-07-17 16.7 22.0 9.6--- 6.7 4.0---- 0.0------------
2019-07-16 15.8 22.9 7.1--- 5.3 4.3---- 0.0------------
2019-07-15 16.9 23.4 9.2--- 3.0 2.3---- 0.0------------
2019-07-14 15.6 19.3 12.7--- 6.7 1.0---- 2.6------------
2019-07-13 16.6 21.3 12.1--- 7.7 0.0---- 4.8------------
2019-07-12 16.7 24.8 5.5--- 5.3 1.7---- 0.0------------
2019-07-11 14.3 19.2 8.0--- 4.3 2.7---- 0.3------------
2019-07-10 15.6 21.1 11.6--- 5.7 3.7---- 1.6------------
2019-07-09 14.6 19.7 8.2--- 5.7 3.0---- 0.0------------
2019-07-08 15.4 19.8 9.7--- 5.3 3.7---- 0.0------------
2019-07-07 19.1 25.2 14.0--- 5.0 3.7---- 0.0------------
2019-07-06 21.4 28.8 13.6--- 6.3 2.7---- 0.0------------
2019-07-05 16.9 23.1 7.2--- 7.7 2.0---- 0.0------------
2019-07-04 16.5 23.1 6.5--- 2.7 3.0---- 0.0------------
2019-07-03 17.5 23.6 10.2--- 3.7 3.0---- 0.0------------
2019-07-02 23.0 29.6 18.0--- 5.0 2.7---- 0.0------------
2019-07-01 29.0 35.6 23.0--- 4.3 5.0---- 0.0------------
2019-06-30 25.5 33.8 16.2--- 0.0 2.3---- 0.0------------
2019-06-29 19.9 26.0 12.2--- 4.0 2.3---- 0.0------------
2019-06-28 17.8 23.0 12.2--- 5.0 2.7---- 0.0------------
2019-06-27 25.2 30.4 21.9--- 1.7 5.0---- 0.0------------
2019-06-26 26.8 34.0 18.2--- 3.3 1.3---- 0.0------------
2019-06-25 23.5 30.3 14.9--- 1.7 1.7---- 0.0------------
2019-06-24 20.2 25.0 13.3--- 7.3 2.0---- 0.0------------
2019-06-23 20.5 25.6 14.9--- 7.0 2.0---- 0.0------------
2019-06-22 20.0 24.1 14.7--- 5.7 1.7---- 0.6------------
2019-06-21 21.7 27.2 18.1--- 6.7 2.3---- 0.2------------
2019-06-20 21.1 26.8 14.7--- 7.7 1.7---- 0.2------------
2019-06-19 21.3 28.0 15.0--- 5.0 1.7---- 0.2------------
2019-06-18 18.1 23.5 10.1--- 5.7 1.3---- 0.0------------
2019-06-17 18.2 21.6 15.6--- 6.3 1.3---- 0.2------------
2019-06-16 22.5 28.6 19.0--- 3.7 2.7---- 2.0------------
2019-06-15 25.8 32.6 18.3--- 3.7 1.7---- 0.0------------
2019-06-14 23.5 28.6 18.8--- 4.3 2.3---- 0.0------------
2019-06-13 25.0 31.7 18.2--- 2.3 2.0---- 0.0------------
2019-06-12 25.1 30.8 19.1--- 1.3 3.3---- 0.0------------
2019-06-11 24.6 29.9 18.1--- 1.3 4.0---- 0.0------------
2019-06-10 23.3 29.7 16.5--- 1.0 3.7---- 0.0------------
2019-06-09 18.9 24.5 11.1--- 1.0 2.0---- 0.0------------
2019-06-08 20.7 28.4 14.1--- 4.3 1.0---- 14.4------------
2019-06-07 19.9 26.1 12.3--- 6.0 0.7---- 0.0------------
2019-06-06 20.1 25.0 14.1--- 3.7 4.7---- 6.1------------
2019-06-05 19.3 25.0 12.1--- 4.3 3.0---- 0.0------------
2019-06-04 20.7 26.7 12.3--- 3.0 1.7---- 0.0------------
2019-06-03 19.9 25.7 11.2--- 2.0 1.0---- 0.0------------
2019-06-02 18.9 25.1 10.3--- 3.0 1.7---- 0.0------------
2019-06-01 17.0 23.2 8.0--- 5.0 1.0---- 0.0------------
2019-05-31 14.6 21.0 7.7--- 4.3 0.7---- 0.0------------
2019-05-30 9.6 11.6 7.7--- 8.0 2.0---- 8.1------------
2019-05-29 13.0 17.7 10.2--- 8.0 2.7---- 0.2------------
2019-05-28 17.6 22.4 11.7--- 7.0 4.3---- 0.2------------
2019-05-27 19.2 24.7 13.1--- 6.3 2.0---- 1.9------------
1101.4 ms

 

Źródłem pochodzenia danych jest Instytut Meteorologii i Gospodarki Wodnej – Państwowy Instytut Badawczy. Dane Instytutu Meteorologii i Gospodarki Wodnej – Państwowego Instytutu Badawczego zostały przetworzone.

Dane źródłowe można odnaleźć na stronie https://dane.imgw.pl